createdAt,value
2018-03-03T00:01:10.886Z,79.27
2018-03-03T00:03:38.345Z,76.87
2018-03-03T00:06:05.894Z,75.50
2018-03-03T00:08:33.454Z,86.83
2018-03-03T00:11:01.013Z,79.67
2018-03-03T00:13:28.424Z,74.00
2018-03-03T00:15:55.936Z,83.70
2018-03-03T00:18:23.486Z,80.73
2018-03-03T00:20:50.900Z,79.20
2018-03-03T00:23:19.132Z,78.60
2018-03-03T00:25:46.574Z,77.63
2018-03-03T00:28:14.040Z,76.80
2018-03-03T00:30:41.488Z,75.10
2018-03-03T00:33:08.933Z,77.63
2018-03-03T00:35:36.404Z,79.73
2018-03-03T00:38:03.964Z,79.60
2018-03-03T00:40:31.425Z,80.67
2018-03-03T00:42:58.980Z,67.80
2018-03-03T00:45:26.393Z,79.23
2018-03-03T00:47:54.717Z,72.43
2018-03-03T00:50:22.173Z,79.07
2018-03-03T00:52:49.594Z,85.00
2018-03-03T00:55:17.912Z,86.27
2018-03-03T00:57:45.341Z,72.80
2018-03-03T01:00:12.782Z,77.37
2018-03-03T01:02:40.991Z,80.53
2018-03-03T01:05:08.460Z,67.83
2018-03-03T01:07:35.894Z,78.77
2018-03-03T01:10:03.355Z,80.83
2018-03-03T01:12:30.821Z,84.20
2018-03-03T01:14:58.380Z,83.43
2018-03-03T01:17:25.827Z,77.07
2018-03-03T01:19:54.029Z,77.67
2018-03-03T01:22:21.467Z,83.73
2018-03-03T01:24:48.910Z,83.33
2018-03-03T01:27:16.393Z,81.93
2018-03-03T01:29:43.841Z,97.30
2018-03-03T01:32:11.323Z,78.67
2018-03-03T01:34:38.742Z,84.00
2018-03-03T01:37:06.224Z,81.93
2018-03-03T01:39:33.656Z,81.00
2018-03-03T01:42:01.139Z,84.03
2018-03-03T01:44:28.584Z,70.93
2018-03-03T01:46:56.012Z,76.53
2018-03-03T01:49:23.508Z,82.23
2018-03-03T01:51:50.969Z,83.87
2018-03-03T01:54:18.622Z,83.70
2018-03-03T01:56:46.041Z,76.13
2018-03-03T01:59:14.353Z,80.53
2018-03-03T02:01:41.773Z,82.30
2018-03-03T02:04:09.981Z,76.30
2018-03-03T02:06:37.445Z,77.37
2018-03-03T02:09:04.901Z,79.97
2018-03-03T02:11:32.328Z,89.77
2018-03-03T02:13:59.769Z,77.30
2018-03-03T02:16:28.090Z,70.60
2018-03-03T02:18:55.544Z,68.83
2018-03-03T02:21:22.958Z,76.13
2018-03-03T02:23:51.289Z,75.03
2018-03-03T02:26:18.725Z,78.70
2018-03-03T02:28:46.200Z,80.47
2018-03-03T02:31:13.666Z,73.63
2018-03-03T02:33:41.317Z,80.23
2018-03-03T02:36:08.729Z,81.07
2018-03-03T02:38:36.952Z,79.30
2018-03-03T02:41:04.502Z,81.83
2018-03-03T02:43:31.960Z,77.23
2018-03-03T02:45:59.436Z,77.60
2018-03-03T02:48:26.869Z,86.77
2018-03-03T02:50:54.437Z,83.73
2018-03-03T02:53:21.865Z,80.37
2018-03-03T02:55:49.299Z,87.50
2018-03-03T02:58:16.908Z,82.80
2018-03-03T03:00:44.369Z,76.87
2018-03-03T03:03:11.781Z,78.13
2018-03-03T03:05:40.015Z,89.10
2018-03-03T03:08:07.556Z,76.27
2018-03-03T03:10:35.015Z,64.77
2018-03-03T03:13:02.438Z,78.77
2018-03-03T03:15:30.758Z,75.50
2018-03-03T03:17:58.305Z,82.73
2018-03-03T03:20:25.766Z,80.83
2018-03-03T03:22:53.230Z,83.07
2018-03-03T03:25:20.664Z,75.60
2018-03-03T03:27:48.237Z,86.83
2018-03-03T03:30:15.661Z,74.53
2018-03-03T03:32:43.877Z,79.03
2018-03-03T03:35:11.325Z,83.80
2018-03-03T03:37:38.807Z,77.80
2018-03-03T03:40:06.252Z,75.83
2018-03-03T03:42:33.695Z,79.53
2018-03-03T03:45:01.164Z,75.23
2018-03-03T03:47:28.621Z,73.97
2018-03-03T03:49:56.066Z,82.63
2018-03-03T03:52:23.500Z,76.83
2018-03-03T03:54:51.693Z,81.83
2018-03-03T03:57:19.171Z,85.53
2018-03-03T03:59:46.613Z,79.40
2018-03-03T04:02:14.057Z,83.17
2018-03-03T04:04:41.495Z,88.33
2018-03-03T04:07:09.806Z,62.17
2018-03-03T04:09:37.272Z,85.27
2018-03-03T04:12:04.713Z,77.23
2018-03-03T04:14:32.187Z,74.87
2018-03-03T04:16:59.644Z,81.17
2018-03-03T04:19:27.106Z,83.33
2018-03-03T04:21:54.649Z,85.87
2018-03-03T04:24:22.106Z,73.23
2018-03-03T04:26:49.563Z,90.33
2018-03-03T04:29:17.019Z,87.10
2018-03-03T04:31:44.500Z,83.80
2018-03-03T04:34:12.047Z,93.70
2018-03-03T04:36:39.496Z,82.80
2018-03-03T04:39:06.941Z,89.50
2018-03-03T04:41:34.416Z,84.73
2018-03-03T04:44:01.853Z,83.73
2018-03-03T04:46:29.290Z,92.10
2018-03-03T04:48:57.600Z,89.37
2018-03-03T04:51:25.042Z,98.80
2018-03-03T04:53:52.478Z,91.63
2018-03-03T04:56:20.687Z,99.33
2018-03-03T04:58:54.181Z,93.73
2018-03-03T05:01:23.209Z,94.67
2018-03-03T05:03:53.502Z,99.63
2018-03-03T05:06:23.369Z,97.20
2018-03-03T05:08:50.804Z,94.77
2018-03-03T05:11:18.252Z,100.47
2018-03-03T05:13:45.689Z,98.10
2018-03-03T05:16:18.851Z,99.10
2018-03-03T05:18:52.992Z,96.60
2018-03-03T05:21:26.038Z,96.50
2018-03-03T05:23:56.189Z,94.63
2018-03-03T05:26:29.276Z,95.20
2018-03-03T05:29:02.482Z,90.93
2018-03-03T05:31:35.760Z,97.07
2018-03-03T05:34:08.968Z,103.50
2018-03-03T05:36:40.245Z,101.17
2018-03-03T05:39:13.493Z,90.90
2018-03-03T05:41:42.779Z,97.97
2018-03-03T05:44:16.841Z,98.50
2018-03-03T05:46:48.252Z,100.97
2018-03-03T05:49:21.417Z,96.00
2018-03-03T05:52:05.312Z,63.10
2018-03-03T05:54:48.483Z,77.23
2018-03-03T05:57:22.464Z,94.83
2018-03-03T05:59:57.569Z,97.83
2018-03-03T06:02:34.916Z,78.27
2018-03-03T06:05:13.071Z,86.37
2018-03-03T06:10:42.802Z,93.37
2018-03-03T06:13:10.220Z,89.30
2018-03-03T06:15:38.431Z,76.83
2018-03-03T06:18:05.890Z,97.83
2018-03-03T06:20:33.339Z,92.13
2018-03-03T06:23:00.907Z,89.83
2018-03-03T06:25:28.375Z,71.63
2018-03-03T06:27:55.803Z,76.93
2018-03-03T06:30:23.381Z,81.07
2018-03-03T06:32:50.795Z,82.20
2018-03-03T06:35:18.308Z,81.90
2018-03-03T06:37:45.752Z,88.27
2018-03-03T06:40:13.168Z,84.10
2018-03-03T06:42:41.402Z,88.90
2018-03-03T06:45:08.840Z,86.53
2018-03-03T06:47:36.275Z,96.57
2018-03-03T06:50:03.736Z,86.43
2018-03-03T06:52:31.944Z,91.97
2018-03-03T06:54:59.389Z,78.17
2018-03-03T06:57:26.844Z,88.37
2018-03-03T06:59:54.272Z,81.97
2018-03-03T07:02:21.705Z,79.33
2018-03-03T07:04:49.318Z,89.50
2018-03-03T07:07:16.724Z,82.90
2018-03-03T07:09:44.949Z,83.40
2018-03-03T07:12:12.372Z,74.33
2018-03-03T07:14:43.040Z,78.23
2018-03-03T07:17:10.599Z,76.50
2018-03-03T07:19:38.030Z,71.07
2018-03-03T07:22:05.501Z,75.77
2018-03-03T07:24:33.047Z,79.07
2018-03-03T07:27:00.509Z,70.70
2018-03-03T07:29:27.981Z,76.13
2018-03-03T07:31:55.408Z,82.47
2018-03-03T07:34:22.878Z,70.40
2018-03-03T07:36:50.338Z,81.40
2018-03-03T07:39:17.768Z,80.43
2018-03-03T07:41:45.217Z,74.73
2018-03-03T07:44:12.699Z,72.83
2018-03-03T07:46:40.259Z,81.13
2018-03-03T07:49:07.704Z,75.60
2018-03-03T07:51:35.184Z,74.23
2018-03-03T07:54:02.647Z,85.80
2018-03-03T07:56:42.172Z,80.63
2018-03-03T07:59:09.644Z,76.47
2018-03-03T08:01:37.097Z,77.00
2018-03-03T08:04:04.541Z,77.67
2018-03-03T08:06:32.000Z,81.90
2018-03-03T08:08:59.412Z,76.33
2018-03-03T08:11:27.733Z,83.47
2018-03-03T08:13:55.296Z,78.87
2018-03-03T08:16:22.717Z,77.47
2018-03-03T08:18:51.040Z,81.97
2018-03-03T08:21:18.468Z,78.90
2018-03-03T08:23:45.904Z,82.47
2018-03-03T08:26:14.136Z,92.40
2018-03-03T08:28:41.557Z,87.53
2018-03-03T08:31:08.993Z,80.93
2018-03-03T08:33:37.216Z,73.57
2018-03-03T08:36:04.764Z,79.07
2018-03-03T08:38:32.234Z,85.30
2018-03-03T08:40:59.675Z,70.47
2018-03-03T08:43:27.112Z,80.57
2018-03-03T08:45:54.577Z,82.33
2018-03-03T08:48:22.051Z,76.77
2018-03-03T08:50:49.469Z,69.30
2018-03-03T08:53:17.688Z,74.73
2018-03-03T08:55:45.239Z,79.03
2018-03-03T08:58:12.656Z,83.17
2018-03-03T09:00:40.870Z,81.53
2018-03-03T09:03:08.360Z,75.43
2018-03-03T09:05:35.801Z,80.67
2018-03-03T09:08:03.344Z,83.77
2018-03-03T09:10:30.791Z,83.23
2018-03-03T09:12:58.277Z,76.77
2018-03-03T09:15:25.737Z,69.33
2018-03-03T09:17:53.180Z,79.63
2018-03-03T09:20:20.649Z,79.13
2018-03-03T09:22:48.077Z,79.13
2018-03-03T09:25:15.553Z,69.57
2018-03-03T09:27:42.978Z,75.90
2018-03-03T09:30:10.476Z,75.53
2018-03-03T09:32:38.022Z,77.40
2018-03-03T09:35:05.454Z,73.70
2018-03-03T09:37:33.670Z,80.60
2018-03-03T09:40:01.212Z,83.57
2018-03-03T09:42:28.634Z,76.60
2018-03-03T09:44:56.871Z,71.10
2018-03-03T09:47:24.408Z,87.63
2018-03-03T09:49:51.860Z,76.17
2018-03-03T09:52:19.298Z,72.23
2018-03-03T09:54:46.774Z,85.97
2018-03-03T09:57:14.231Z,87.53
2018-03-03T09:59:41.687Z,79.13
2018-03-03T10:02:09.102Z,79.60
2018-03-03T10:04:36.656Z,80.97
2018-03-03T10:07:04.154Z,82.67
2018-03-03T10:09:31.639Z,71.13
2018-03-03T10:11:59.013Z,81.43
2018-03-03T10:14:26.450Z,74.97
2018-03-03T10:16:54.762Z,70.70
2018-03-03T10:19:22.231Z,79.40
2018-03-03T10:21:49.692Z,73.37
2018-03-03T10:24:17.181Z,84.43
2018-03-03T10:26:45.422Z,79.97
2018-03-03T10:29:12.864Z,82.37
2018-03-03T10:31:40.290Z,80.73
2018-03-03T10:34:08.485Z,85.33
2018-03-03T10:36:35.967Z,84.27
2018-03-03T10:39:03.405Z,80.90
2018-03-03T10:41:30.839Z,90.63
2018-03-03T10:43:59.045Z,75.80
2018-03-03T10:46:26.478Z,80.63
2018-03-03T10:48:53.907Z,89.03
2018-03-03T10:51:21.436Z,84.23
2018-03-03T10:53:48.868Z,80.57
2018-03-03T10:56:16.305Z,82.30
2018-03-03T10:58:43.737Z,78.60
2018-03-03T11:01:11.973Z,82.30
2018-03-03T11:03:39.412Z,89.43
2018-03-03T11:06:06.885Z,82.37
2018-03-03T11:08:34.330Z,81.20
2018-03-03T11:11:01.767Z,74.70
2018-03-03T11:13:29.249Z,79.97
2018-03-03T11:15:56.701Z,75.30
2018-03-03T11:18:24.119Z,82.17
2018-03-03T11:20:52.435Z,81.70
2018-03-03T11:23:19.928Z,75.23
2018-03-03T11:25:47.472Z,85.97
2018-03-03T11:28:14.945Z,86.70
2018-03-03T11:30:42.426Z,79.27
2018-03-03T11:33:09.826Z,84.23
2018-03-03T11:35:37.294Z,90.23
2018-03-03T11:38:04.741Z,82.07
2018-03-03T11:40:33.133Z,84.03
2018-03-03T11:42:59.655Z,85.37
2018-03-03T11:45:27.082Z,84.53
2018-03-03T11:47:55.289Z,82.97
2018-03-03T11:50:22.843Z,80.40
2018-03-03T11:52:50.252Z,84.60
2018-03-03T11:55:18.583Z,83.07
2018-03-03T11:57:45.988Z,85.47
2018-03-03T12:00:14.215Z,83.33
2018-03-03T12:02:41.676Z,99.63
2018-03-03T12:05:09.149Z,88.00
2018-03-03T12:07:36.608Z,78.83
2018-03-03T12:10:04.035Z,90.10
2018-03-03T12:12:31.508Z,83.47
2018-03-03T12:14:58.949Z,84.70
2018-03-03T12:17:26.387Z,83.90
2018-03-03T12:19:54.697Z,84.00
2018-03-03T12:22:22.154Z,85.77
2018-03-03T12:24:49.565Z,90.57
2018-03-03T12:27:17.794Z,95.83
2018-03-03T12:29:45.246Z,86.57
2018-03-03T12:32:12.724Z,91.20
2018-03-03T12:34:40.261Z,92.20
2018-03-03T12:37:07.715Z,86.47
2018-03-03T12:39:35.136Z,84.70
2018-03-03T12:42:03.333Z,89.57
2018-03-03T12:44:30.906Z,96.87
2018-03-03T12:46:58.376Z,91.73
2018-03-03T12:49:25.824Z,94.13
2018-03-03T12:51:53.276Z,84.77
2018-03-03T12:54:20.745Z,84.43
2018-03-03T12:56:48.191Z,91.40
2018-03-03T12:59:15.625Z,94.50
2018-03-03T13:01:43.835Z,93.33
2018-03-03T13:04:11.281Z,95.80
2018-03-03T13:06:38.717Z,95.30
2018-03-03T13:09:06.300Z,94.70
2018-03-03T13:11:33.762Z,87.30
2018-03-03T13:14:01.190Z,87.13
2018-03-03T13:16:28.638Z,89.77
2018-03-03T13:18:56.851Z,89.93
2018-03-03T13:21:24.298Z,85.40
2018-03-03T13:23:51.773Z,87.47
2018-03-03T13:26:19.219Z,87.90
2018-03-03T13:28:46.680Z,91.80
2018-03-03T13:31:14.132Z,90.40
2018-03-03T13:33:41.537Z,88.87
2018-03-03T13:36:09.117Z,80.83
2018-03-03T13:38:36.605Z,88.77
2018-03-03T13:41:04.158Z,85.90
2018-03-03T13:43:31.589Z,86.87
2018-03-03T13:45:59.017Z,85.53
2018-03-03T13:48:27.217Z,85.47
2018-03-03T13:50:54.680Z,89.00
2018-03-03T13:53:22.132Z,92.70
2018-03-03T13:55:49.562Z,81.90
2018-03-03T13:58:17.782Z,90.43
2018-03-03T14:00:45.228Z,90.60
2018-03-03T14:03:12.780Z,79.57
2018-03-03T14:05:40.188Z,96.30
2018-03-03T14:08:08.388Z,89.93
2018-03-03T14:10:35.825Z,88.50
2018-03-03T14:13:03.304Z,88.00
2018-03-03T14:15:30.737Z,88.47
2018-03-03T14:17:58.205Z,98.90
2018-03-03T14:20:25.677Z,86.23
2018-03-03T14:22:53.173Z,93.83
2018-03-03T14:25:20.532Z,83.87
2018-03-03T14:27:48.765Z,88.97
2018-03-03T14:30:16.193Z,96.60
2018-03-03T14:32:43.690Z,92.50
2018-03-03T14:35:11.121Z,90.63
2018-03-03T14:37:38.682Z,95.13
2018-03-03T14:40:06.097Z,83.67
2018-03-03T14:42:34.302Z,88.03
2018-03-03T14:45:01.725Z,87.97
2018-03-03T14:47:29.929Z,92.37
2018-03-03T14:49:57.375Z,89.23
2018-03-03T14:52:25.680Z,97.90
2018-03-03T14:54:53.238Z,95.63
2018-03-03T14:57:20.702Z,87.33
2018-03-03T14:59:48.852Z,97.63
2018-03-03T15:02:16.343Z,100.23
2018-03-03T15:04:43.789Z,92.00
2018-03-03T15:07:11.224Z,93.10
2018-03-03T15:09:38.707Z,90.90
2018-03-03T15:12:06.174Z,101.00
2018-03-03T15:14:33.613Z,102.70
2018-03-03T15:17:01.068Z,94.43
2018-03-03T15:19:28.627Z,90.20
2018-03-03T15:21:56.091Z,100.03
2018-03-03T15:24:23.557Z,96.57
2018-03-03T15:26:51.004Z,94.80
2018-03-03T15:29:18.456Z,91.83
2018-03-03T15:31:45.873Z,99.80
2018-03-03T15:34:14.117Z,99.13
2018-03-03T15:36:41.543Z,97.77
2018-03-03T15:39:08.961Z,92.93
2018-03-03T15:41:37.276Z,94.40
2018-03-03T15:44:04.740Z,97.97
2018-03-03T15:46:32.173Z,102.30
2018-03-03T15:48:59.626Z,101.57
2018-03-03T15:51:27.092Z,96.37
2018-03-03T15:53:55.294Z,101.53
2018-03-03T15:56:22.738Z,98.57
2018-03-03T15:58:50.174Z,97.10
2018-03-03T16:01:17.645Z,104.93
2018-03-03T16:03:45.091Z,103.07
2018-03-03T16:06:12.581Z,99.77
2018-03-03T16:08:40.022Z,100.37
2018-03-03T16:11:07.484Z,95.50
2018-03-03T16:13:34.965Z,96.00
2018-03-03T16:16:02.417Z,96.93
2018-03-03T16:18:29.853Z,93.27
2018-03-03T16:20:57.411Z,95.20
2018-03-03T16:23:24.896Z,98.07
2018-03-03T16:25:52.338Z,87.17
2018-03-03T16:28:19.840Z,89.60
2018-03-03T16:30:47.342Z,96.03
2018-03-03T16:33:14.837Z,92.53
2018-03-03T16:35:42.369Z,97.80
2018-03-03T16:38:09.804Z,86.57
2018-03-03T16:40:37.376Z,98.80
2018-03-03T16:43:04.784Z,98.53
2018-03-03T16:45:32.290Z,90.87
2018-03-03T16:47:59.712Z,93.40
2018-03-03T16:50:27.940Z,91.63
2018-03-03T16:52:55.482Z,87.17
2018-03-03T16:55:22.953Z,93.83
2018-03-03T16:57:50.498Z,90.73
2018-03-03T17:00:17.913Z,95.43
2018-03-03T17:02:46.231Z,87.00
2018-03-03T17:05:13.793Z,90.53
2018-03-03T17:07:41.247Z,95.57
2018-03-03T17:10:08.807Z,90.23
2018-03-03T17:12:36.289Z,86.97
2018-03-03T17:15:03.721Z,93.17
2018-03-03T17:17:31.137Z,86.33
2018-03-03T17:19:59.336Z,97.20
2018-03-03T17:22:26.769Z,92.40
2018-03-03T17:24:54.988Z,95.20
2018-03-03T17:27:22.425Z,95.40
2018-03-03T17:29:49.907Z,90.27
2018-03-03T17:32:17.340Z,84.83
2018-03-03T17:34:44.780Z,89.60
2018-03-03T17:37:12.987Z,84.60
2018-03-03T17:39:40.417Z,90.50
2018-03-03T17:42:07.921Z,84.90
2018-03-03T17:44:35.370Z,90.53
2018-03-03T17:47:02.814Z,87.90
2018-03-03T17:49:30.245Z,80.03
2018-03-03T17:51:58.549Z,87.23
2018-03-03T17:54:26.016Z,92.03
2018-03-03T17:56:53.461Z,81.50
2018-03-03T17:59:20.896Z,88.33
2018-03-03T18:01:48.385Z,86.50
2018-03-03T18:04:15.857Z,86.20
2018-03-03T18:06:43.296Z,87.80
2018-03-03T18:09:10.748Z,87.30
2018-03-03T18:11:38.216Z,93.27
2018-03-03T18:14:05.648Z,85.97
2018-03-03T18:16:33.121Z,90.03
2018-03-03T18:19:00.535Z,94.60
2018-03-03T18:21:28.855Z,95.13
2018-03-03T18:23:56.317Z,89.97
2018-03-03T18:26:23.776Z,85.00
2018-03-03T18:28:51.987Z,91.23
2018-03-03T18:31:19.480Z,83.30
2018-03-03T18:33:47.016Z,87.87
2018-03-03T18:36:14.455Z,91.93
2018-03-03T18:38:41.918Z,92.80
2018-03-03T18:41:09.332Z,91.60
2018-03-03T18:43:37.533Z,81.00
2018-03-03T18:46:04.980Z,89.13
2018-03-03T18:48:33.187Z,80.13
2018-03-03T18:51:00.843Z,93.00
2018-03-03T18:53:28.272Z,90.10
2018-03-03T18:55:56.511Z,92.03
2018-03-03T18:58:23.948Z,92.33
2018-03-03T19:00:51.425Z,79.47
2018-03-03T19:03:18.964Z,85.67
2018-03-03T19:05:46.397Z,87.27
2018-03-03T19:08:13.972Z,93.93
2018-03-03T19:10:41.560Z,85.73
2018-03-03T19:13:09.800Z,88.30
2018-03-03T19:15:37.229Z,93.33
2018-03-03T19:18:05.433Z,89.80
2018-03-03T19:20:32.861Z,90.90
2018-03-03T19:23:01.081Z,64.43
2018-03-03T19:25:28.526Z,94.27
2018-03-03T19:27:55.961Z,87.57
2018-03-03T19:30:23.408Z,91.23
2018-03-03T19:32:50.905Z,88.77
2018-03-03T19:35:18.341Z,92.43
2018-03-03T19:37:45.825Z,90.70
2018-03-03T19:40:13.265Z,95.03
2018-03-03T19:42:40.697Z,91.17
2018-03-03T19:45:08.144Z,92.60
2018-03-03T19:47:36.345Z,96.73
2018-03-03T19:50:03.783Z,92.47
2018-03-03T19:52:32.012Z,92.33
2018-03-03T19:54:59.557Z,101.13
2018-03-03T19:57:27.023Z,106.60
2018-03-03T19:59:54.473Z,103.40
2018-03-03T20:02:21.912Z,95.67
2018-03-03T20:04:49.384Z,99.43
2018-03-03T20:07:16.954Z,105.53
2018-03-03T20:09:44.394Z,98.90
2018-03-03T20:12:11.832Z,95.47
2018-03-03T20:14:39.408Z,97.57
2018-03-03T20:17:06.842Z,107.53
2018-03-03T20:19:35.145Z,105.53
2018-03-03T20:22:02.708Z,112.87
2018-03-03T20:24:30.141Z,108.33
2018-03-03T20:26:57.597Z,107.43
2018-03-03T20:29:25.085Z,109.77
2018-03-03T20:31:52.529Z,102.43
2018-03-03T20:34:20.020Z,105.20
2018-03-03T20:36:47.473Z,107.70
2018-03-03T20:39:14.982Z,116.37
2018-03-03T20:41:42.562Z,103.03
2018-03-03T20:44:10.042Z,112.50
2018-03-03T20:46:37.497Z,109.97
2018-03-03T20:49:04.932Z,108.67
2018-03-03T20:51:32.389Z,108.23
2018-03-03T20:53:59.847Z,119.20
2018-03-03T20:56:27.331Z,107.67
2018-03-03T20:58:54.796Z,110.87
2018-03-03T21:01:22.329Z,122.13
2018-03-03T21:03:49.882Z,122.97
2018-03-03T21:06:17.348Z,115.43
2018-03-03T21:08:45.112Z,126.50
2018-03-03T21:11:15.216Z,115.87
2018-03-03T21:13:42.618Z,113.47
2018-03-03T21:16:10.058Z,118.23
2018-03-03T21:18:37.657Z,125.07
2018-03-03T21:21:05.970Z,121.70
2018-03-03T21:23:33.429Z,123.03
2018-03-03T21:26:00.886Z,115.37
2018-03-03T21:28:28.321Z,120.97
2018-03-03T21:30:55.762Z,122.73
2018-03-03T21:33:23.967Z,126.37
2018-03-03T21:35:51.416Z,119.87
2018-03-03T21:38:18.857Z,116.73
2018-03-03T21:40:47.074Z,126.37
2018-03-03T21:43:14.552Z,125.63
2018-03-03T21:45:42.004Z,128.80
2018-03-03T21:48:09.461Z,121.37
2018-03-03T21:50:36.997Z,123.83
2018-03-03T21:53:04.417Z,123.60
2018-03-03T21:55:32.636Z,130.17
2018-03-03T21:58:00.105Z,122.60
2018-03-03T22:00:27.550Z,131.03
2018-03-03T22:02:55.007Z,124.07
2018-03-03T22:05:22.567Z,125.80
2018-03-03T22:07:50.038Z,132.87
2018-03-03T22:10:17.467Z,132.57
2018-03-03T22:12:44.938Z,125.83
2018-03-03T22:15:12.373Z,124.20
2018-03-03T22:17:39.830Z,128.23
2018-03-03T22:20:07.272Z,127.33
2018-03-03T22:22:34.761Z,127.67
2018-03-03T22:25:02.204Z,129.87
2018-03-03T22:27:29.657Z,127.60
2018-03-03T22:29:57.102Z,137.10
2018-03-03T22:32:24.583Z,132.83
2018-03-03T22:34:52.056Z,130.67
2018-03-03T22:37:19.501Z,132.23
2018-03-03T22:39:46.977Z,135.33
2018-03-03T22:42:14.425Z,138.53
2018-03-03T22:44:41.863Z,128.60
2018-03-03T22:47:09.306Z,137.33
2018-03-03T22:49:36.817Z,136.20
2018-03-03T22:52:04.357Z,143.23
2018-03-03T22:54:31.903Z,132.63
2018-03-03T22:56:59.332Z,133.80
2018-03-03T22:59:27.548Z,149.07
2018-03-03T23:01:54.986Z,136.23
2018-03-03T23:04:22.441Z,137.53
2018-03-03T23:06:50.008Z,132.37
2018-03-03T23:09:17.472Z,139.40
2018-03-03T23:11:45.025Z,128.07
2018-03-03T23:14:12.444Z,124.47
2018-03-03T23:16:40.678Z,129.50
2018-03-03T23:19:08.229Z,130.17
2018-03-03T23:21:35.661Z,127.13
2018-03-03T23:24:03.129Z,129.03
2018-03-03T23:26:30.597Z,133.00
2018-03-03T23:28:58.038Z,135.20
2018-03-03T23:31:25.512Z,136.10
2018-03-03T23:33:52.999Z,136.67
2018-03-03T23:36:20.533Z,134.63
2018-03-03T23:38:47.965Z,133.23
2018-03-03T23:41:15.445Z,135.17
2018-03-03T23:43:42.896Z,133.80
2018-03-03T23:46:10.345Z,134.07
2018-03-03T23:48:37.788Z,129.43
2018-03-03T23:51:05.261Z,139.50
2018-03-03T23:53:32.676Z,145.93
2018-03-03T23:56:00.899Z,136.97
2018-03-03T23:58:28.349Z,130.37
